sensor_id;sensor_type;location;lat;lon;timestamp;pressure;altitude;pressure_sealevel;temperature;humidity
21828;BME280;11076;47.942;11.804;2023-08-17T00:00:47;94473.41;;;19.03;100.00
21828;BME280;11076;47.942;11.804;2023-08-17T00:05:50;94472.03;;;18.85;100.00
21828;BME280;11076;47.942;11.804;2023-08-17T00:10:52;94479.09;;;19.07;100.00
21828;BME280;11076;47.942;11.804;2023-08-17T00:15:55;94476.41;;;19.12;100.00
21828;BME280;11076;47.942;11.804;2023-08-17T00:20:57;94468.53;;;19.31;99.95
21828;BME280;11076;47.942;11.804;2023-08-17T00:26:00;94469.34;;;19.11;100.00
21828;BME280;11076;47.942;11.804;2023-08-17T00:31:02;94471.47;;;18.78;100.00
21828;BME280;11076;47.942;11.804;2023-08-17T00:36:05;94463.31;;;18.63;100.00
21828;BME280;11076;47.942;11.804;2023-08-17T00:41:07;94461.75;;;18.87;100.00
21828;BME280;11076;47.942;11.804;2023-08-17T00:46:10;94458.94;;;18.62;100.00
21828;BME280;11076;47.942;11.804;2023-08-17T00:51:13;94466.97;;;18.26;100.00
21828;BME280;11076;47.942;11.804;2023-08-17T00:56:16;94467.44;;;18.07;100.00
21828;BME280;11076;47.942;11.804;2023-08-17T01:01:19;94473.94;;;18.12;100.00
21828;BME280;11076;47.942;11.804;2023-08-17T01:06:22;94472.34;;;18.11;100.00
21828;BME280;11076;47.942;11.804;2023-08-17T01:11:29;94465.28;;;18.09;100.00
21828;BME280;11076;47.942;11.804;2023-08-17T01:21:50;94468.25;;;18.08;100.00
21828;BME280;11076;47.942;11.804;2023-08-17T01:26:53;94482.31;;;18.10;100.00
21828;BME280;11076;47.942;11.804;2023-08-17T01:32:20;94476.69;;;18.17;100.00
21828;BME280;11076;47.942;11.804;2023-08-17T01:37:27;94476.41;;;18.13;100.00
21828;BME280;11076;47.942;11.804;2023-08-17T01:42:30;94473.44;;;18.20;100.00
21828;BME280;11076;47.942;11.804;2023-08-17T01:47:35;94481.47;;;18.04;100.00
21828;BME280;11076;47.942;11.804;2023-08-17T01:52:37;94476.53;;;17.86;100.00
21828;BME280;11076;47.942;11.804;2023-08-17T01:57:40;94477.03;;;17.83;100.00
21828;BME280;11076;47.942;11.804;2023-08-17T02:02:43;94460.59;;;17.89;100.00
21828;BME280;11076;47.942;11.804;2023-08-17T02:07:46;94462.88;;;18.13;100.00
21828;BME280;11076;47.942;11.804;2023-08-17T02:12:49;94458.25;;;18.08;100.00
21828;BME280;11076;47.942;11.804;2023-08-17T02:17:53;94459.75;;;17.84;100.00
21828;BME280;11076;47.942;11.804;2023-08-17T02:22:55;94447.38;;;17.98;100.00
21828;BME280;11076;47.942;11.804;2023-08-17T02:27:58;94437.91;;;17.96;100.00
21828;BME280;11076;47.942;11.804;2023-08-17T02:33:02;94446.56;;;17.98;100.00
21828;BME280;11076;47.942;11.804;2023-08-17T02:38:04;94440.06;;;17.94;100.00
21828;BME280;11076;47.942;11.804;2023-08-17T02:43:07;94434.53;;;17.78;100.00
21828;BME280;11076;47.942;11.804;2023-08-17T02:48:10;94434.81;;;17.77;100.00
21828;BME280;11076;47.942;11.804;2023-08-17T02:53:13;94438.47;;;18.03;100.00
21828;BME280;11076;47.942;11.804;2023-08-17T02:58:15;94431.75;;;18.16;100.00
21828;BME280;11076;47.942;11.804;2023-08-17T03:03:18;94425.25;;;18.12;100.00
21828;BME280;11076;47.942;11.804;2023-08-17T03:08:20;94416.41;;;18.37;100.00
21828;BME280;11076;47.942;11.804;2023-08-17T03:13:23;94429.53;;;17.97;100.00
21828;BME280;11076;47.942;11.804;2023-08-17T03:18:25;94431.72;;;18.05;100.00
21828;BME280;11076;47.942;11.804;2023-08-17T03:23:27;94437.13;;;18.05;100.00
21828;BME280;11076;47.942;11.804;2023-08-17T03:28:31;94430.22;;;18.45;100.00
21828;BME280;11076;47.942;11.804;2023-08-17T03:33:34;94421.19;;;18.14;100.00
21828;BME280;11076;47.942;11.804;2023-08-17T03:38:36;94432.38;;;17.80;100.00
21828;BME280;11076;47.942;11.804;2023-08-17T03:43:41;94438.66;;;17.86;100.00
21828;BME280;11076;47.942;11.804;2023-08-17T03:48:43;94436.69;;;17.76;100.00
21828;BME280;11076;47.942;11.804;2023-08-17T03:53:46;94460.59;;;17.47;100.00
21828;BME280;11076;47.942;11.804;2023-08-17T03:58:49;94451.56;;;17.74;100.00
21828;BME280;11076;47.942;11.804;2023-08-17T04:03:51;94454.69;;;17.55;100.00
21828;BME280;11076;47.942;11.804;2023-08-17T04:08:54;94467.34;;;17.87;100.00
21828;BME280;11076;47.942;11.804;2023-08-17T04:13:56;94458.06;;;17.78;100.00
21828;BME280;11076;47.942;11.804;2023-08-17T04:18:59;94463.53;;;17.88;100.00
21828;BME280;11076;47.942;11.804;2023-08-17T04:24:01;94468.50;;;18.01;100.00
21828;BME280;11076;47.942;11.804;2023-08-17T04:29:04;94459.94;;;18.30;100.00
21828;BME280;11076;47.942;11.804;2023-08-17T04:34:07;94473.25;;;18.42;100.00
21828;BME280;11076;47.942;11.804;2023-08-17T04:39:10;94467.38;;;18.71;100.00
21828;BME280;11076;47.942;11.804;2023-08-17T04:44:12;94465.75;;;18.75;100.00
21828;BME280;11076;47.942;11.804;2023-08-17T04:49:15;94472.53;;;18.77;100.00
21828;BME280;11076;47.942;11.804;2023-08-17T04:54:18;94469.59;;;18.89;100.00
21828;BME280;11076;47.942;11.804;2023-08-17T04:59:20;94466.09;;;19.45;100.00
21828;BME280;11076;47.942;11.804;2023-08-17T05:04:23;94476.41;;;19.33;100.00
21828;BME280;11076;47.942;11.804;2023-08-17T05:09:26;94473.13;;;19.66;100.00
21828;BME280;11076;47.942;11.804;2023-08-17T05:14:28;94483.00;;;20.98;97.85
21828;BME280;11076;47.942;11.804;2023-08-17T05:19:31;94477.47;;;25.57;85.02
21828;BME280;11076;47.942;11.804;2023-08-17T05:24:34;94469.72;;;27.02;76.67
21828;BME280;11076;47.942;11.804;2023-08-17T05:29:36;94477.63;;;26.06;78.77
21828;BME280;11076;47.942;11.804;2023-08-17T05:34:39;94484.47;;;24.49;82.79
21828;BME280;11076;47.942;11.804;2023-08-17T05:39:42;94494.13;;;23.67;84.63
21828;BME280;11076;47.942;11.804;2023-08-17T05:44:44;94491.44;;;23.99;85.28
21828;BME280;11076;47.942;11.804;2023-08-17T05:49:47;94477.69;;;27.90;73.85
21828;BME280;11076;47.942;11.804;2023-08-17T05:54:49;94478.88;;;30.47;65.16
21828;BME280;11076;47.942;11.804;2023-08-17T05:59:52;94484.25;;;28.92;65.38
21828;BME280;11076;47.942;11.804;2023-08-17T06:04:54;94481.63;;;30.84;57.47
21828;BME280;11076;47.942;11.804;2023-08-17T06:09:57;94486.44;;;31.48;53.81
21828;BME280;11076;47.942;11.804;2023-08-17T06:15:01;94483.50;;;32.42;49.42
21828;BME280;11076;47.942;11.804;2023-08-17T06:20:03;94489.28;;;31.64;48.64
21828;BME280;11076;47.942;11.804;2023-08-17T06:25:06;94503.91;;;26.78;58.96
21828;BME280;11076;47.942;11.804;2023-08-17T06:30:10;94500.97;;;25.58;62.46
21828;BME280;11076;47.942;11.804;2023-08-17T06:35:13;94499.75;;;24.50;66.32
21828;BME280;11076;47.942;11.804;2023-08-17T06:40:16;94501.84;;;24.39;67.29
21828;BME280;11076;47.942;11.804;2023-08-17T06:45:18;94496.72;;;24.37;69.12
21828;BME280;11076;47.942;11.804;2023-08-17T06:50:21;94492.09;;;24.52;69.16
21828;BME280;11076;47.942;11.804;2023-08-17T06:55:23;94505.47;;;24.53;71.19
21828;BME280;11076;47.942;11.804;2023-08-17T07:00:26;94506.03;;;24.78;72.10
21828;BME280;11076;47.942;11.804;2023-08-17T07:05:29;94505.75;;;24.79;73.17
21828;BME280;11076;47.942;11.804;2023-08-17T07:10:31;94505.22;;;24.91;73.43
21828;BME280;11076;47.942;11.804;2023-08-17T07:15:33;94512.41;;;25.37;71.90
21828;BME280;11076;47.942;11.804;2023-08-17T07:20:36;94517.22;;;25.77;71.20
21828;BME280;11076;47.942;11.804;2023-08-17T07:25:38;94515.91;;;25.29;72.61
21828;BME280;11076;47.942;11.804;2023-08-17T07:30:41;94516.25;;;25.36;72.41
21828;BME280;11076;47.942;11.804;2023-08-17T07:35:43;94527.50;;;25.71;71.58
21828;BME280;11076;47.942;11.804;2023-08-17T07:40:46;94521.00;;;25.90;71.34
21828;BME280;11076;47.942;11.804;2023-08-17T07:45:55;94534.53;;;26.09;71.17
21828;BME280;11076;47.942;11.804;2023-08-17T07:50:57;94522.44;;;26.41;69.53
21828;BME280;11076;47.942;11.804;2023-08-17T07:56:00;94524.22;;;26.46;69.94
21828;BME280;11076;47.942;11.804;2023-08-17T08:01:02;94519.72;;;26.50;68.82
21828;BME280;11076;47.942;11.804;2023-08-17T08:06:05;94524.69;;;26.70;68.16
21828;BME280;11076;47.942;11.804;2023-08-17T08:11:07;94518.56;;;26.42;68.47
21828;BME280;11076;47.942;11.804;2023-08-17T08:16:10;94509.66;;;26.68;67.45
21828;BME280;11076;47.942;11.804;2023-08-17T08:21:12;94512.44;;;26.76;66.02
21828;BME280;11076;47.942;11.804;2023-08-17T08:26:15;94515.81;;;26.65;65.63
21828;BME280;11076;47.942;11.804;2023-08-17T08:31:17;94517.66;;;26.95;65.09
21828;BME280;11076;47.942;11.804;2023-08-17T08:36:19;94511.88;;;27.14;65.05
21828;BME280;11076;47.942;11.804;2023-08-17T08:41:22;94513.66;;;27.19;64.78
21828;BME280;11076;47.942;11.804;2023-08-17T08:46:30;94508.97;;;27.19;64.96
21828;BME280;11076;47.942;11.804;2023-08-17T08:51:35;94502.06;;;27.40;64.26
21828;BME280;11076;47.942;11.804;2023-08-17T08:56:43;94508.88;;;27.60;65.50
21828;BME280;11076;47.942;11.804;2023-08-17T09:01:49;94509.66;;;27.86;64.43
21828;BME280;11076;47.942;11.804;2023-08-17T09:06:53;94509.16;;;28.10;65.40
21828;BME280;11076;47.942;11.804;2023-08-17T09:11:57;94509.34;;;27.96;64.92
21828;BME280;11076;47.942;11.804;2023-08-17T09:17:00;94507.34;;;28.23;64.23
21828;BME280;11076;47.942;11.804;2023-08-17T09:22:02;94498.00;;;28.07;64.86
21828;BME280;11076;47.942;11.804;2023-08-17T09:27:04;94495.84;;;28.30;63.88
21828;BME280;11076;47.942;11.804;2023-08-17T09:32:14;94496.63;;;28.30;64.12
21828;BME280;11076;47.942;11.804;2023-08-17T09:37:16;94507.75;;;28.43;63.39
21828;BME280;11076;47.942;11.804;2023-08-17T09:42:20;94501.63;;;28.37;62.79
21828;BME280;11076;47.942;11.804;2023-08-17T09:47:23;94491.38;;;28.55;61.63
21828;BME280;11076;47.942;11.804;2023-08-17T09:52:26;94491.38;;;28.08;63.08
21828;BME280;11076;47.942;11.804;2023-08-17T09:57:29;94497.16;;;28.24;62.66
21828;BME280;11076;47.942;11.804;2023-08-17T10:02:32;94487.28;;;28.31;62.35
21828;BME280;11076;47.942;11.804;2023-08-17T10:07:36;94484.91;;;28.89;60.18
21828;BME280;11076;47.942;11.804;2023-08-17T10:12:44;94479.19;;;29.24;59.95
21828;BME280;11076;47.942;11.804;2023-08-17T10:18:07;94478.22;;;28.99;60.06
21828;BME280;11076;47.942;11.804;2023-08-17T10:23:22;94470.59;;;28.75;60.32
21828;BME280;11076;47.942;11.804;2023-08-17T10:28:25;94475.94;;;29.01;60.04
21828;BME280;11076;47.942;11.804;2023-08-17T10:33:28;94472.63;;;29.17;58.92
21828;BME280;11076;47.942;11.804;2023-08-17T10:38:31;94480.47;;;29.69;57.31
21828;BME280;11076;47.942;11.804;2023-08-17T10:43:34;94484.69;;;29.87;56.48
21828;BME280;11076;47.942;11.804;2023-08-17T10:48:36;94482.56;;;29.72;57.56
21828;BME280;11076;47.942;11.804;2023-08-17T10:53:42;94475.97;;;29.85;57.68
21828;BME280;11076;47.942;11.804;2023-08-17T10:58:45;94483.84;;;30.08;56.48
21828;BME280;11076;47.942;11.804;2023-08-17T11:04:16;94473.50;;;30.05;55.73
21828;BME280;11076;47.942;11.804;2023-08-17T11:09:21;94474.91;;;30.23;55.39
21828;BME280;11076;47.942;11.804;2023-08-17T11:14:24;94468.03;;;30.29;55.04
21828;BME280;11076;47.942;11.804;2023-08-17T11:19:26;94467.28;;;30.08;54.38
21828;BME280;11076;47.942;11.804;2023-08-17T11:24:29;94463.25;;;30.39;53.12
21828;BME280;11076;47.942;11.804;2023-08-17T11:29:32;94457.72;;;29.81;54.17
21828;BME280;11076;47.942;11.804;2023-08-17T11:34:35;94461.41;;;30.67;53.21
21828;BME280;11076;47.942;11.804;2023-08-17T11:39:38;94451.81;;;30.16;53.73
21828;BME280;11076;47.942;11.804;2023-08-17T11:44:41;94452.84;;;30.23;53.62
21828;BME280;11076;47.942;11.804;2023-08-17T11:49:47;94444.63;;;30.48;54.43
21828;BME280;11076;47.942;11.804;2023-08-17T11:54:50;94444.50;;;30.32;54.57
21828;BME280;11076;47.942;11.804;2023-08-17T11:59:55;94443.38;;;30.58;53.53
21828;BME280;11076;47.942;11.804;2023-08-17T12:04:57;94430.63;;;30.90;52.25
21828;BME280;11076;47.942;11.804;2023-08-17T12:10:02;94425.09;;;30.78;53.45
21828;BME280;11076;47.942;11.804;2023-08-17T12:15:05;94417.84;;;30.73;54.38
21828;BME280;11076;47.942;11.804;2023-08-17T12:20:08;94429.59;;;30.82;53.79
21828;BME280;11076;47.942;11.804;2023-08-17T12:25:11;94415.00;;;30.94;54.59
21828;BME280;11076;47.942;11.804;2023-08-17T12:30:33;94409.09;;;30.83;53.99
21828;BME280;11076;47.942;11.804;2023-08-17T12:35:38;94400.94;;;30.99;53.30
21828;BME280;11076;47.942;11.804;2023-08-17T12:40:40;94401.66;;;30.96;52.48
21828;BME280;11076;47.942;11.804;2023-08-17T12:45:43;94397.69;;;31.09;51.73
21828;BME280;11076;47.942;11.804;2023-08-17T12:50:45;94389.94;;;30.75;52.00
21828;BME280;11076;47.942;11.804;2023-08-17T12:55:47;94378.41;;;30.85;53.13
21828;BME280;11076;47.942;11.804;2023-08-17T13:00:56;94387.59;;;31.01;51.77
21828;BME280;11076;47.942;11.804;2023-08-17T13:05:59;94381.97;;;31.38;49.40
21828;BME280;11076;47.942;11.804;2023-08-17T13:11:01;94383.19;;;31.41;49.12
21828;BME280;11076;47.942;11.804;2023-08-17T13:16:04;94375.00;;;31.57;49.48
21828;BME280;11076;47.942;11.804;2023-08-17T13:21:07;94371.66;;;31.23;50.22
21828;BME280;11076;47.942;11.804;2023-08-17T13:26:11;94369.50;;;31.44;49.80
21828;BME280;11076;47.942;11.804;2023-08-17T13:31:13;94366.78;;;31.04;48.67
21828;BME280;11076;47.942;11.804;2023-08-17T13:36:24;94359.03;;;31.09;48.35
21828;BME280;11076;47.942;11.804;2023-08-17T13:41:26;94362.91;;;31.21;47.29
21828;BME280;11076;47.942;11.804;2023-08-17T13:46:29;94369.22;;;30.93;47.12
21828;BME280;11076;47.942;11.804;2023-08-17T13:51:31;94360.91;;;31.05;46.55
21828;BME280;11076;47.942;11.804;2023-08-17T13:56:34;94350.84;;;31.41;46.88
21828;BME280;11076;47.942;11.804;2023-08-17T14:01:36;94346.13;;;31.26;45.25
21828;BME280;11076;47.942;11.804;2023-08-17T14:06:39;94338.91;;;31.09;44.40
21828;BME280;11076;47.942;11.804;2023-08-17T14:11:41;94345.53;;;30.92;44.88
21828;BME280;11076;47.942;11.804;2023-08-17T14:16:43;94337.06;;;30.72;45.90
21828;BME280;11076;47.942;11.804;2023-08-17T14:21:46;94337.06;;;30.60;45.83
21828;BME280;11076;47.942;11.804;2023-08-17T14:26:48;94327.41;;;30.66;45.43
21828;BME280;11076;47.942;11.804;2023-08-17T14:31:50;94320.16;;;30.74;46.38
21828;BME280;11076;47.942;11.804;2023-08-17T14:36:56;94316.38;;;30.66;46.34
21828;BME280;11076;47.942;11.804;2023-08-17T14:41:59;94307.34;;;30.82;47.08
21828;BME280;11076;47.942;11.804;2023-08-17T14:47:01;94297.28;;;31.14;46.69
21828;BME280;11076;47.942;11.804;2023-08-17T14:52:04;94308.03;;;30.91;47.27
21828;BME280;11076;47.942;11.804;2023-08-17T14:57:06;94305.75;;;29.58;48.44
21828;BME280;11076;47.942;11.804;2023-08-17T15:02:09;94302.13;;;28.99;50.07
21828;BME280;11076;47.942;11.804;2023-08-17T15:07:13;94304.69;;;28.62;50.94
21828;BME280;11076;47.942;11.804;2023-08-17T15:12:15;94321.00;;;28.38;52.18
21828;BME280;11076;47.942;11.804;2023-08-17T15:17:18;94336.13;;;28.23;53.46
21828;BME280;11076;47.942;11.804;2023-08-17T15:22:20;94334.38;;;28.18;53.75
21828;BME280;11076;47.942;11.804;2023-08-17T15:27:22;94336.13;;;27.84;54.91
21828;BME280;11076;47.942;11.804;2023-08-17T15:32:25;94338.84;;;28.02;55.88
21828;BME280;11076;47.942;11.804;2023-08-17T15:37:27;94350.66;;;27.93;55.79
21828;BME280;11076;47.942;11.804;2023-08-17T15:42:31;94346.44;;;27.96;56.54
21828;BME280;11076;47.942;11.804;2023-08-17T15:47:33;94357.59;;;28.00;57.51
21828;BME280;11076;47.942;11.804;2023-08-17T15:52:36;94350.34;;;27.86;58.89
21828;BME280;11076;47.942;11.804;2023-08-17T15:57:38;94347.47;;;27.74;59.71
21828;BME280;11076;47.942;11.804;2023-08-17T16:02:41;94339.13;;;27.62;60.24
21828;BME280;11076;47.942;11.804;2023-08-17T16:07:43;94343.03;;;27.43;62.12
21828;BME280;11076;47.942;11.804;2023-08-17T16:12:46;94352.03;;;27.70;62.05
21828;BME280;11076;47.942;11.804;2023-08-17T16:17:48;94349.06;;;27.75;62.20
21828;BME280;11076;47.942;11.804;2023-08-17T16:22:51;94327.78;;;27.72;62.16
21828;BME280;11076;47.942;11.804;2023-08-17T16:27:53;94330.97;;;27.91;61.92
21828;BME280;11076;47.942;11.804;2023-08-17T16:32:55;94351.81;;;27.75;62.93
21828;BME280;11076;47.942;11.804;2023-08-17T16:37:58;94358.06;;;27.46;63.20
21828;BME280;11076;47.942;11.804;2023-08-17T16:43:00;94376.28;;;27.15;64.23
21828;BME280;11076;47.942;11.804;2023-08-17T16:48:03;94411.03;;;26.94;66.02
21828;BME280;11076;47.942;11.804;2023-08-17T16:53:05;94438.28;;;26.02;61.89
21828;BME280;11076;47.942;11.804;2023-08-17T16:58:08;94461.19;;;25.29;57.42
21828;BME280;11076;47.942;11.804;2023-08-17T17:03:10;94489.44;;;24.74;58.99
21828;BME280;11076;47.942;11.804;2023-08-17T17:08:13;94513.28;;;24.27;61.96
21828;BME280;11076;47.942;11.804;2023-08-17T17:13:16;94523.25;;;23.71;63.99
21828;BME280;11076;47.942;11.804;2023-08-17T17:18:18;94541.94;;;23.45;64.96
21828;BME280;11076;47.942;11.804;2023-08-17T17:23:21;94524.41;;;23.32;65.07
21828;BME280;11076;47.942;11.804;2023-08-17T17:28:23;94540.03;;;22.83;65.53
21828;BME280;11076;47.942;11.804;2023-08-17T17:33:26;94548.34;;;22.73;64.51
21828;BME280;11076;47.942;11.804;2023-08-17T17:38:28;94560.66;;;22.47;66.37
21828;BME280;11076;47.942;11.804;2023-08-17T17:43:31;94543.03;;;22.63;66.45
21828;BME280;11076;47.942;11.804;2023-08-17T17:48:33;94556.59;;;22.44;65.00
21828;BME280;11076;47.942;11.804;2023-08-17T17:53:35;94574.22;;;22.52;65.23
21828;BME280;11076;47.942;11.804;2023-08-17T17:58:38;94562.16;;;22.34;66.57
21828;BME280;11076;47.942;11.804;2023-08-17T18:03:41;94561.22;;;22.43;65.25
21828;BME280;11076;47.942;11.804;2023-08-17T18:08:44;94586.31;;;22.11;67.00
21828;BME280;11076;47.942;11.804;2023-08-17T18:13:46;94588.09;;;21.57;69.61
21828;BME280;11076;47.942;11.804;2023-08-17T18:18:49;94591.69;;;21.42;71.10
21828;BME280;11076;47.942;11.804;2023-08-17T18:23:51;94601.44;;;21.04;73.86
21828;BME280;11076;47.942;11.804;2023-08-17T18:28:54;94606.53;;;21.21;74.33
21828;BME280;11076;47.942;11.804;2023-08-17T18:33:57;94623.69;;;21.11;76.00
21828;BME280;11076;47.942;11.804;2023-08-17T18:39:00;94616.56;;;21.20;75.95
21828;BME280;11076;47.942;11.804;2023-08-17T18:44:03;94614.97;;;21.19;76.28
21828;BME280;11076;47.942;11.804;2023-08-17T18:49:05;94623.03;;;21.35;75.44
21828;BME280;11076;47.942;11.804;2023-08-17T18:54:08;94621.59;;;21.53;74.99
21828;BME280;11076;47.942;11.804;2023-08-17T18:59:10;94662.03;;;21.64;74.55
21828;BME280;11076;47.942;11.804;2023-08-17T19:04:12;94662.81;;;21.75;73.03
21828;BME280;11076;47.942;11.804;2023-08-17T19:09:15;94667.09;;;22.21;71.62
21828;BME280;11076;47.942;11.804;2023-08-17T19:14:17;94682.41;;;21.12;76.85
21828;BME280;11076;47.942;11.804;2023-08-17T19:19:20;94691.63;;;21.21;77.38
21828;BME280;11076;47.942;11.804;2023-08-17T19:24:22;94683.38;;;21.47;76.52
21828;BME280;11076;47.942;11.804;2023-08-17T19:29:24;94678.81;;;21.27;77.65
21828;BME280;11076;47.942;11.804;2023-08-17T19:34:27;94674.81;;;20.99;78.13
21828;BME280;11076;47.942;11.804;2023-08-17T19:39:29;94678.56;;;21.23;77.27
21828;BME280;11076;47.942;11.804;2023-08-17T19:44:32;94667.34;;;21.35;76.72
21828;BME280;11076;47.942;11.804;2023-08-17T19:49:34;94654.63;;;21.20;76.91
21828;BME280;11076;47.942;11.804;2023-08-17T19:54:37;94650.94;;;21.01;78.27
21828;BME280;11076;47.942;11.804;2023-08-17T19:59:39;94652.16;;;21.29;76.46
21828;BME280;11076;47.942;11.804;2023-08-17T20:04:41;94650.19;;;21.45;75.45
21828;BME280;11076;47.942;11.804;2023-08-17T20:09:44;94641.25;;;20.69;78.54
21828;BME280;11076;47.942;11.804;2023-08-17T20:14:46;94639.63;;;20.42;79.75
21828;BME280;11076;47.942;11.804;2023-08-17T20:19:48;94638.81;;;20.57;79.22
21828;BME280;11076;47.942;11.804;2023-08-17T20:24:51;94636.19;;;21.17;77.09
21828;BME280;11076;47.942;11.804;2023-08-17T20:29:54;94635.91;;;21.19;76.35
21828;BME280;11076;47.942;11.804;2023-08-17T20:34:56;94635.69;;;21.00;76.46
21828;BME280;11076;47.942;11.804;2023-08-17T20:39:58;94631.81;;;21.16;75.73
21828;BME280;11076;47.942;11.804;2023-08-17T20:45:01;94636.78;;;20.99;75.63
21828;BME280;11076;47.942;11.804;2023-08-17T20:50:04;94629.69;;;21.08;75.22
21828;BME280;11076;47.942;11.804;2023-08-17T20:55:09;94630.09;;;20.76;76.61
21828;BME280;11076;47.942;11.804;2023-08-17T21:00:12;94628.34;;;21.00;75.72
21828;BME280;11076;47.942;11.804;2023-08-17T21:05:15;94624.84;;;21.00;75.67
21828;BME280;11076;47.942;11.804;2023-08-17T21:10:18;94627.56;;;20.95;76.32
21828;BME280;11076;47.942;11.804;2023-08-17T21:15:20;94619.44;;;20.84;76.93
21828;BME280;11076;47.942;11.804;2023-08-17T21:20:23;94619.41;;;20.95;76.79
21828;BME280;11076;47.942;11.804;2023-08-17T21:25:25;94632.81;;;20.76;77.76
21828;BME280;11076;47.942;11.804;2023-08-17T21:30:28;94635.53;;;20.71;78.11
21828;BME280;11076;47.942;11.804;2023-08-17T21:35:30;94637.16;;;20.72;78.28
21828;BME280;11076;47.942;11.804;2023-08-17T21:40:33;94629.06;;;20.41;79.23
21828;BME280;11076;47.942;11.804;2023-08-17T21:45:35;94619.28;;;20.35;79.36
21828;BME280;11076;47.942;11.804;2023-08-17T21:50:37;94622.31;;;20.18;79.95
21828;BME280;11076;47.942;11.804;2023-08-17T21:55:50;94624.75;;;19.89;80.26
21828;BME280;11076;47.942;11.804;2023-08-17T22:00:53;94628.78;;;19.55;82.07
21828;BME280;11076;47.942;11.804;2023-08-17T22:05:55;94625.56;;;19.89;80.21
21828;BME280;11076;47.942;11.804;2023-08-17T22:10:59;94628.25;;;19.48;81.85
21828;BME280;11076;47.942;11.804;2023-08-17T22:16:01;94636.38;;;19.53;80.96
21828;BME280;11076;47.942;11.804;2023-08-17T22:21:04;94627.47;;;19.83;80.39
21828;BME280;11076;47.942;11.804;2023-08-17T22:26:08;94631.78;;;19.54;82.47
21828;BME280;11076;47.942;11.804;2023-08-17T22:31:11;94633.97;;;19.77;81.01
21828;BME280;11076;47.942;11.804;2023-08-17T22:36:13;94642.13;;;19.72;80.92
21828;BME280;11076;47.942;11.804;2023-08-17T22:41:16;94639.09;;;19.58;81.64
21828;BME280;11076;47.942;11.804;2023-08-17T22:46:18;94631.47;;;19.45;81.90
21828;BME280;11076;47.942;11.804;2023-08-17T22:51:20;94629.00;;;19.23;83.41
21828;BME280;11076;47.942;11.804;2023-08-17T22:56:23;94624.38;;;19.18;83.55
21828;BME280;11076;47.942;11.804;2023-08-17T23:01:25;94628.25;;;19.48;82.66
21828;BME280;11076;47.942;11.804;2023-08-17T23:06:28;94636.31;;;19.27;83.47
21828;BME280;11076;47.942;11.804;2023-08-17T23:11:31;94628.78;;;19.60;82.31
21828;BME280;11076;47.942;11.804;2023-08-17T23:16:34;94629.00;;;19.23;83.89
21828;BME280;11076;47.942;11.804;2023-08-17T23:21:36;94629.22;;;19.06;84.70
21828;BME280;11076;47.942;11.804;2023-08-17T23:26:38;94620.88;;;19.28;84.46
21828;BME280;11076;47.942;11.804;2023-08-17T23:31:41;94615.16;;;19.14;86.19
21828;BME280;11076;47.942;11.804;2023-08-17T23:36:43;94615.19;;;19.35;86.04
21828;BME280;11076;47.942;11.804;2023-08-17T23:41:46;94604.09;;;19.52;85.38
21828;BME280;11076;47.942;11.804;2023-08-17T23:46:48;94599.00;;;19.86;84.00
21828;BME280;11076;47.942;11.804;2023-08-17T23:51:51;94594.66;;;19.80;84.79
21828;BME280;11076;47.942;11.804;2023-08-17T23:56:53;94581.88;;;19.70;85.97
